Aviation Digital Data Service (ADDS)

Output produced by METARs form (1452 UTC 25 January 2020)
found at http://www.aviationweather.gov/metar/data/
 
METAR text: OMDB 251400Z 35009KT CAVOK 21/10 Q1017 NOSIG
Conditions at: OMDB (DUBAI INTL AIRPO, AE) observed 1400 UTC 25 January 2020
Temperature: 21.0°C (70°F)
Dewpoint: 10.0°C (50°F) [RH = 49%]
Pressure (altimeter): 30.03 inches Hg (1017.0 mb)
Winds: from the N (350 degrees) at 10 MPH (9 knots; 4.6 m/s)
Visibility: 6 or more miles (10+ km)
Ceiling: ceiling and visibility are OK
Clouds: unknown
Weather: no significant weather observed at this time

METAR text: OMDB 251300Z 36010KT CAVOK 21/11 Q1017 NOSIG
Conditions at: OMDB (DUBAI INTL AIRPO, AE) observed 1300 UTC 25 January 2020
Temperature: 21.0°C (70°F)
Dewpoint: 11.0°C (52°F) [RH = 53%]
Pressure (altimeter): 30.03 inches Hg (1017.0 mb)
Winds: from the N (360 degrees) at 12 MPH (10 knots; 5.1 m/s)
Visibility: 6 or more miles (10+ km)
Ceiling: ceiling and visibility are OK
Clouds: unknown
Weather: no significant weather observed at this time

METAR text: OMDB 251200Z 32010KT CAVOK 22/09 Q1017 NOSIG
Conditions at: OMDB (DUBAI INTL AIRPO, AE) observed 1200 UTC 25 January 2020
Temperature: 22.0°C (72°F)
Dewpoint: 9.0°C (48°F) [RH = 43%]
Pressure (altimeter): 30.03 inches Hg (1017.0 mb)
Winds: from the NW (320 degrees) at 12 MPH (10 knots; 5.1 m/s)
Visibility: 6 or more miles (10+ km)
Ceiling: ceiling and visibility are OK
Clouds: unknown
Weather: no significant weather observed at this time

METAR text: OMDB 251100Z 35008KT 290V050 CAVOK 23/10 Q1017 NOSIG
Conditions at: OMDB (DUBAI INTL AIRPO, AE) observed 1100 UTC 25 January 2020
Temperature: 23.0°C (73°F)
Dewpoint: 10.0°C (50°F) [RH = 44%]
Pressure (altimeter): 30.03 inches Hg (1017.0 mb)
Winds: from the N (350 degrees) at 9 MPH (8 knots; 4.1 m/s)
Visibility: 6 or more miles (10+ km)
Ceiling: ceiling and visibility are OK
Clouds: unknown
Weather: no significant weather observed at this time

METAR text: OMDB 251000Z 32008KT 290V360 CAVOK 23/08 Q1018 NOSIG
Conditions at: OMDB (DUBAI INTL AIRPO, AE) observed 1000 UTC 25 January 2020
Temperature: 23.0°C (73°F)
Dewpoint: 8.0°C (46°F) [RH = 38%]
Pressure (altimeter): 30.06 inches Hg (1018.0 mb)
Winds: from the NW (320 degrees) at 9 MPH (8 knots; 4.1 m/s)
Visibility: 6 or more miles (10+ km)
Ceiling: ceiling and visibility are OK
Clouds: unknown
Weather: no significant weather observed at this time

METAR text: OMDB 250900Z 35008KT 320V030 CAVOK 22/12 Q1019 NOSIG
Conditions at: OMDB (DUBAI INTL AIRPO, AE) observed 0900 UTC 25 January 2020
Temperature: 22.0°C (72°F)
Dewpoint: 12.0°C (54°F) [RH = 53%]
Pressure (altimeter): 30.09 inches Hg (1019.0 mb)
Winds: from the N (350 degrees) at 9 MPH (8 knots; 4.1 m/s)
Visibility: 6 or more miles (10+ km)
Ceiling: ceiling and visibility are OK
Clouds: unknown
Weather: no significant weather observed at this time

METAR text: OMDB 250800Z 35007KT 300V030 CAVOK 22/12 Q1020 NOSIG
Conditions at: OMDB (DUBAI INTL AIRPO, AE) observed 0800 UTC 25 January 2020
Temperature: 22.0°C (72°F)
Dewpoint: 12.0°C (54°F) [RH = 53%]
Pressure (altimeter): 30.12 inches Hg (1020.0 mb)
Winds: from the N (350 degrees) at 8 MPH (7 knots; 3.6 m/s)
Visibility: 6 or more miles (10+ km)
Ceiling: ceiling and visibility are OK
Clouds: unknown
Weather: no significant weather observed at this time

METAR text: OMDB 250700Z 02006KT 340V050 9999 FEW033 21/12 Q1021 BECMG 30010KT
Conditions at: OMDB (DUBAI INTL AIRPO, AE) observed 0700 UTC 25 January 2020
Temperature: 21.0°C (70°F)
Dewpoint: 12.0°C (54°F) [RH = 56%]
Pressure (altimeter): 30.15 inches Hg (1021.0 mb)
Winds: from the NNE (20 degrees) at 7 MPH (6 knots; 3.1 m/s)
Visibility: 6 or more miles (10+ km)
Ceiling: at least 12,000 feet AGL
Clouds: few clouds at 3300 feet AGL
Weather: no significant weather observed at this time

METAR text: OMDB 250600Z 17005KT 140V210 CAVOK 20/13 Q1021 BECMG 30010KT
Conditions at: OMDB (DUBAI INTL AIRPO, AE) observed 0600 UTC 25 January 2020
Temperature: 20.0°C (68°F)
Dewpoint: 13.0°C (55°F) [RH = 64%]
Pressure (altimeter): 30.15 inches Hg (1021.0 mb)
Winds: from the S (170 degrees) at 6 MPH (5 knots; 2.6 m/s)
Visibility: 6 or more miles (10+ km)
Ceiling: ceiling and visibility are OK
Clouds: unknown
Weather: no significant weather observed at this time

METAR text: OMDB 250500Z 15004KT 110V180 CAVOK 18/12 Q1021 BECMG 30010KT
Conditions at: OMDB (DUBAI INTL AIRPO, AE) observed 0500 UTC 25 January 2020
Temperature: 18.0°C (64°F)
Dewpoint: 12.0°C (54°F) [RH = 68%]
Pressure (altimeter): 30.15 inches Hg (1021.0 mb)
Winds: from the SSE (150 degrees) at 5 MPH (4 knots; 2.1 m/s)
Visibility: 6 or more miles (10+ km)
Ceiling: ceiling and visibility are OK
Clouds: unknown
Weather: no significant weather observed at this time

METAR text: OMDB 250400Z 17005KT 130V190 CAVOK 16/12 Q1020 NOSIG
Conditions at: OMDB (DUBAI INTL AIRPO, AE) observed 0400 UTC 25 January 2020
Temperature: 16.0°C (61°F)
Dewpoint: 12.0°C (54°F) [RH = 77%]
Pressure (altimeter): 30.12 inches Hg (1020.0 mb)
Winds: from the S (170 degrees) at 6 MPH (5 knots; 2.6 m/s)
Visibility: 6 or more miles (10+ km)
Ceiling: ceiling and visibility are OK
Clouds: unknown
Weather: no significant weather observed at this time

METAR text: OMDB 250300Z 19004KT CAVOK 16/12 Q1019 NOSIG
Conditions at: OMDB (DUBAI INTL AIRPO, AE) observed 0300 UTC 25 January 2020
Temperature: 16.0°C (61°F)
Dewpoint: 12.0°C (54°F) [RH = 77%]
Pressure (altimeter): 30.09 inches Hg (1019.0 mb)
Winds: from the S (190 degrees) at 5 MPH (4 knots; 2.1 m/s)
Visibility: 6 or more miles (10+ km)
Ceiling: ceiling and visibility are OK
Clouds: unknown
Weather: no significant weather observed at this time

METAR text: OMDB 250200Z 18003KT 110V200 CAVOK 16/12 Q1019 NOSIG
Conditions at: OMDB (DUBAI INTL AIRPO, AE) observed 0200 UTC 25 January 2020
Temperature: 16.0°C (61°F)
Dewpoint: 12.0°C (54°F) [RH = 77%]
Pressure (altimeter): 30.09 inches Hg (1019.0 mb)
Winds: from the S (180 degrees) at 3 MPH (3 knots; 1.5 m/s)
Visibility: 6 or more miles (10+ km)
Ceiling: ceiling and visibility are OK
Clouds: unknown
Weather: no significant weather observed at this time

METAR text: OMDB 250100Z VRB02KT CAVOK 17/13 Q1018 NOSIG
Conditions at: OMDB (DUBAI INTL AIRPO, AE) observed 0100 UTC 25 January 2020
Temperature: 17.0°C (63°F)
Dewpoint: 13.0°C (55°F) [RH = 77%]
Pressure (altimeter): 30.06 inches Hg (1018.0 mb)
Winds: variable direction winds at 2 MPH (2 knots; 1.0 m/s)
Visibility: 6 or more miles (10+ km)
Ceiling: ceiling and visibility are OK
Clouds: unknown
Weather: no significant weather observed at this time

METAR text: OMDB 250000Z 27003KT 220V020 CAVOK 18/12 Q1018 NOSIG
Conditions at: OMDB (DUBAI INTL AIRPO, AE) observed 0000 UTC 25 January 2020
Temperature: 18.0°C (64°F)
Dewpoint: 12.0°C (54°F) [RH = 68%]
Pressure (altimeter): 30.06 inches Hg (1018.0 mb)
Winds: from the W (270 degrees) at 3 MPH (3 knots; 1.5 m/s)
Visibility: 6 or more miles (10+ km)
Ceiling: ceiling and visibility are OK
Clouds: unknown
Weather: no significant weather observed at this time

METAR text: OMDB 242300Z VRB04KT CAVOK 19/13 Q1019 NOSIG
Conditions at: OMDB (DUBAI INTL AIRPO, AE) observed 2300 UTC 24 January 2020
Temperature: 19.0°C (66°F)
Dewpoint: 13.0°C (55°F) [RH = 68%]
Pressure (altimeter): 30.09 inches Hg (1019.0 mb)
Winds: variable direction winds at 5 MPH (4 knots; 2.1 m/s)
Visibility: 6 or more miles (10+ km)
Ceiling: ceiling and visibility are OK
Clouds: unknown
Weather: no significant weather observed at this time

METAR text: OMDB 242200Z VRB02KT CAVOK 18/13 Q1019 NOSIG
Conditions at: OMDB (DUBAI INTL AIRPO, AE) observed 2200 UTC 24 January 2020
Temperature: 18.0°C (64°F)
Dewpoint: 13.0°C (55°F) [RH = 73%]
Pressure (altimeter): 30.09 inches Hg (1019.0 mb)
Winds: variable direction winds at 2 MPH (2 knots; 1.0 m/s)
Visibility: 6 or more miles (10+ km)
Ceiling: ceiling and visibility are OK
Clouds: unknown
Weather: no significant weather observed at this time

METAR text: OMDB 242100Z 19004KT CAVOK 18/13 Q1019 NOSIG
Conditions at: OMDB (DUBAI INTL AIRPO, AE) observed 2100 UTC 24 January 2020
Temperature: 18.0°C (64°F)
Dewpoint: 13.0°C (55°F) [RH = 73%]
Pressure (altimeter): 30.09 inches Hg (1019.0 mb)
Winds: from the S (190 degrees) at 5 MPH (4 knots; 2.1 m/s)
Visibility: 6 or more miles (10+ km)
Ceiling: ceiling and visibility are OK
Clouds: unknown
Weather: no significant weather observed at this time

METAR text: OMDB 242000Z 26005KT 190V300 CAVOK 19/12 Q1019 NOSIG
Conditions at: OMDB (DUBAI INTL AIRPO, AE) observed 2000 UTC 24 January 2020
Temperature: 19.0°C (66°F)
Dewpoint: 12.0°C (54°F) [RH = 64%]
Pressure (altimeter): 30.09 inches Hg (1019.0 mb)
Winds: from the W (260 degrees) at 6 MPH (5 knots; 2.6 m/s)
Visibility: 6 or more miles (10+ km)
Ceiling: ceiling and visibility are OK
Clouds: unknown
Weather: no significant weather observed at this time

METAR text: OMDB 241900Z 25004KT 170V280 CAVOK 19/12 Q1019 NOSIG
Conditions at: OMDB (DUBAI INTL AIRPO, AE) observed 1900 UTC 24 January 2020
Temperature: 19.0°C (66°F)
Dewpoint: 12.0°C (54°F) [RH = 64%]
Pressure (altimeter): 30.09 inches Hg (1019.0 mb)
Winds: from the WSW (250 degrees) at 5 MPH (4 knots; 2.1 m/s)
Visibility: 6 or more miles (10+ km)
Ceiling: ceiling and visibility are OK
Clouds: unknown
Weather: no significant weather observed at this time

METAR text: OMDB 241800Z 25004KT CAVOK 19/12 Q1019 NOSIG
Conditions at: OMDB (DUBAI INTL AIRPO, AE) observed 1800 UTC 24 January 2020
Temperature: 19.0°C (66°F)
Dewpoint: 12.0°C (54°F) [RH = 64%]
Pressure (altimeter): 30.09 inches Hg (1019.0 mb)
Winds: from the WSW (250 degrees) at 5 MPH (4 knots; 2.1 m/s)
Visibility: 6 or more miles (10+ km)
Ceiling: ceiling and visibility are OK
Clouds: unknown
Weather: no significant weather observed at this time

METAR text: OMDB 241700Z 26006KT CAVOK 20/13 Q1019 NOSIG
Conditions at: OMDB (DUBAI INTL AIRPO, AE) observed 1700 UTC 24 January 2020
Temperature: 20.0°C (68°F)
Dewpoint: 13.0°C (55°F) [RH = 64%]
Pressure (altimeter): 30.09 inches Hg (1019.0 mb)
Winds: from the W (260 degrees) at 7 MPH (6 knots; 3.1 m/s)
Visibility: 6 or more miles (10+ km)
Ceiling: ceiling and visibility are OK
Clouds: unknown
Weather: no significant weather observed at this time

METAR text: OMDB 241600Z 26005KT 230V300 CAVOK 20/13 Q1019 NOSIG
Conditions at: OMDB (DUBAI INTL AIRPO, AE) observed 1600 UTC 24 January 2020
Temperature: 20.0°C (68°F)
Dewpoint: 13.0°C (55°F) [RH = 64%]
Pressure (altimeter): 30.09 inches Hg (1019.0 mb)
Winds: from the W (260 degrees) at 6 MPH (5 knots; 2.6 m/s)
Visibility: 6 or more miles (10+ km)
Ceiling: ceiling and visibility are OK
Clouds: unknown
Weather: no significant weather observed at this time

METAR text: OMDB 241500Z 28006KT 260V320 CAVOK 20/13 Q1018 NOSIG
Conditions at: OMDB (DUBAI INTL AIRPO, AE) observed 1500 UTC 24 January 2020
Temperature: 20.0°C (68°F)
Dewpoint: 13.0°C (55°F) [RH = 64%]
Pressure (altimeter): 30.06 inches Hg (1018.0 mb)
Winds: from the W (280 degrees) at 7 MPH (6 knots; 3.1 m/s)
Visibility: 6 or more miles (10+ km)
Ceiling: ceiling and visibility are OK
Clouds: unknown
Weather: no significant weather observed at this time

METAR text: OMDB 241400Z 30008KT CAVOK 20/13 Q1017 NOSIG
Conditions at: OMDB (DUBAI INTL AIRPO, AE) observed 1400 UTC 24 January 2020
Temperature: 20.0°C (68°F)
Dewpoint: 13.0°C (55°F) [RH = 64%]
Pressure (altimeter): 30.03 inches Hg (1017.0 mb)
Winds: from the WNW (300 degrees) at 9 MPH (8 knots; 4.1 m/s)
Visibility: 6 or more miles (10+ km)
Ceiling: ceiling and visibility are OK
Clouds: unknown
Weather: no significant weather observed at this time

METAR text: OMDB 241300Z 29008KT 250V310 9999 FEW030 21/13 Q1018 NOSIG
Conditions at: OMDB (DUBAI INTL AIRPO, AE) observed 1300 UTC 24 January 2020
Temperature: 21.0°C (70°F)
Dewpoint: 13.0°C (55°F) [RH = 60%]
Pressure (altimeter): 30.06 inches Hg (1018.0 mb)
Winds: from the WNW (290 degrees) at 9 MPH (8 knots; 4.1 m/s)
Visibility: 6 or more miles (10+ km)
Ceiling: at least 12,000 feet AGL
Clouds: few clouds at 3000 feet AGL
Weather: no significant weather observed at this time

METAR text: OMDB 241200Z 30011KT 9999 SCT030 21/13 Q1017 NOSIG
Conditions at: OMDB (DUBAI INTL AIRPO, AE) observed 1200 UTC 24 January 2020
Temperature: 21.0°C (70°F)
Dewpoint: 13.0°C (55°F) [RH = 60%]
Pressure (altimeter): 30.03 inches Hg (1017.0 mb)
Winds: from the WNW (300 degrees) at 13 MPH (11 knots; 5.7 m/s)
Visibility: 6 or more miles (10+ km)
Ceiling: at least 12,000 feet AGL
Clouds: scattered clouds at 3000 feet AGL
Weather: no significant weather observed at this time

METAR text: OMDB 241100Z 31010KT 260V360 9999 FEW025 21/14 Q1017 NOSIG
Conditions at: OMDB (DUBAI INTL AIRPO, AE) observed 1100 UTC 24 January 2020
Temperature: 21.0°C (70°F)
Dewpoint: 14.0°C (57°F) [RH = 64%]
Pressure (altimeter): 30.03 inches Hg (1017.0 mb)
Winds: from the NW (310 degrees) at 12 MPH (10 knots; 5.1 m/s)
Visibility: 6 or more miles (10+ km)
Ceiling: at least 12,000 feet AGL
Clouds: few clouds at 2500 feet AGL
Weather: no significant weather observed at this time

METAR text: OMDB 241000Z 28010KT 9999 FEW025 21/13 Q1018 NOSIG
Conditions at: OMDB (DUBAI INTL AIRPO, AE) observed 1000 UTC 24 January 2020
Temperature: 21.0°C (70°F)
Dewpoint: 13.0°C (55°F) [RH = 60%]
Pressure (altimeter): 30.06 inches Hg (1018.0 mb)
Winds: from the W (280 degrees) at 12 MPH (10 knots; 5.1 m/s)
Visibility: 6 or more miles (10+ km)
Ceiling: at least 12,000 feet AGL
Clouds: few clouds at 2500 feet AGL
Weather: no significant weather observed at this time

METAR text: OMDB 240900Z 30014KT 9999 SCT025 21/13 Q1019 NOSIG
Conditions at: OMDB (DUBAI INTL AIRPO, AE) observed 0900 UTC 24 January 2020
Temperature: 21.0°C (70°F)
Dewpoint: 13.0°C (55°F) [RH = 60%]
Pressure (altimeter): 30.09 inches Hg (1019.0 mb)
Winds: from the WNW (300 degrees) at 16 MPH (14 knots; 7.2 m/s)
Visibility: 6 or more miles (10+ km)
Ceiling: at least 12,000 feet AGL
Clouds: scattered clouds at 2500 feet AGL
Weather: no significant weather observed at this time

METAR text: OMDB 240800Z 29008KT 250V320 9999 FEW040 21/14 Q1019 NOSIG
Conditions at: OMDB (DUBAI INTL AIRPO, AE) observed 0800 UTC 24 January 2020
Temperature: 21.0°C (70°F)
Dewpoint: 14.0°C (57°F) [RH = 64%]
Pressure (altimeter): 30.09 inches Hg (1019.0 mb)
Winds: from the WNW (290 degrees) at 9 MPH (8 knots; 4.1 m/s)
Visibility: 6 or more miles (10+ km)
Ceiling: at least 12,000 feet AGL
Clouds: few clouds at 4000 feet AGL
Weather: no significant weather observed at this time

METAR text: OMDB 240700Z 27005KT 220V320 9999 SCT040 21/14 Q1019 NOSIG
Conditions at: OMDB (DUBAI INTL AIRPO, AE) observed 0700 UTC 24 January 2020
Temperature: 21.0°C (70°F)
Dewpoint: 14.0°C (57°F) [RH = 64%]
Pressure (altimeter): 30.09 inches Hg (1019.0 mb)
Winds: from the W (270 degrees) at 6 MPH (5 knots; 2.6 m/s)
Visibility: 6 or more miles (10+ km)
Ceiling: at least 12,000 feet AGL
Clouds: scattered clouds at 4000 feet AGL
Weather: no significant weather observed at this time

METAR text: OMDB 240600Z 28010KT 250V320 9999 SCT027 21/14 Q1019 NOSIG
Conditions at: OMDB (DUBAI INTL AIRPO, AE) observed 0600 UTC 24 January 2020
Temperature: 21.0°C (70°F)
Dewpoint: 14.0°C (57°F) [RH = 64%]
Pressure (altimeter): 30.09 inches Hg (1019.0 mb)
Winds: from the W (280 degrees) at 12 MPH (10 knots; 5.1 m/s)
Visibility: 6 or more miles (10+ km)
Ceiling: at least 12,000 feet AGL
Clouds: scattered clouds at 2700 feet AGL
Weather: no significant weather observed at this time

METAR text: OMDB 240500Z 26008KT 170V290 9999 SCT022 20/15 Q1019 NOSIG
Conditions at: OMDB (DUBAI INTL AIRPO, AE) observed 0500 UTC 24 January 2020
Temperature: 20.0°C (68°F)
Dewpoint: 15.0°C (59°F) [RH = 73%]
Pressure (altimeter): 30.09 inches Hg (1019.0 mb)
Winds: from the W (260 degrees) at 9 MPH (8 knots; 4.1 m/s)
Visibility: 6 or more miles (10+ km)
Ceiling: at least 12,000 feet AGL
Clouds: scattered clouds at 2200 feet AGL
Weather: no significant weather observed at this time

METAR text: OMDB 240400Z 26008KT 9999 FEW024 SCT045 21/15 Q1018 NOSIG
Conditions at: OMDB (DUBAI INTL AIRPO, AE) observed 0400 UTC 24 January 2020
Temperature: 21.0°C (70°F)
Dewpoint: 15.0°C (59°F) [RH = 69%]
Pressure (altimeter): 30.06 inches Hg (1018.0 mb)
Winds: from the W (260 degrees) at 9 MPH (8 knots; 4.1 m/s)
Visibility: 6 or more miles (10+ km)
Ceiling: at least 12,000 feet AGL
Clouds: few clouds at 2400 feet AGL
scattered clouds at 4500 feet AGL
Weather: no significant weather observed at this time

METAR text: OMDB 240300Z 29008KT 240V310 9999 FEW015 SCT020 20/15 Q1017 NOSIG
Conditions at: OMDB (DUBAI INTL AIRPO, AE) observed 0300 UTC 24 January 2020
Temperature: 20.0°C (68°F)
Dewpoint: 15.0°C (59°F) [RH = 73%]
Pressure (altimeter): 30.03 inches Hg (1017.0 mb)
Winds: from the WNW (290 degrees) at 9 MPH (8 knots; 4.1 m/s)
Visibility: 6 or more miles (10+ km)
Ceiling: at least 12,000 feet AGL
Clouds: few clouds at 1500 feet AGL
scattered clouds at 2000 feet AGL
Weather: no significant weather observed at this time

Forecast for: OMDB (DUBAI INTL AIRPO, AE)
Text: TAF OMDB 251055Z 2512/2618 33010KT 9999 FEW035
Forecast period: 1200 to 1600 UTC 25 January 2020
Forecast type: FROM: standard forecast or significant change
Winds: from the NNW (330 degrees) at 12 MPH (10 knots; 5.1 m/s)
Visibility: 6 or more miles 10+ km)
Ceiling: at least 12,000 feet AGL
Clouds: few clouds at 3500 feet AGL
Weather: no significant weather forecast for this period
Text: BECMG 2516/2518 19005KT
Forecast period: 1600 UTC 25 January 2020 to 0400 UTC 26 January 2020
Forecast type: BECOMING: Conditions expected to become as follows by 1800 UTC 25 January 2020
Winds: from the S (190 degrees) at 6 MPH (5 knots; 2.6 m/s)
Visibility: 6 or more miles 10+ km)
Ceiling: at least 12,000 feet AGL
Clouds: few clouds at 3500 feet AGL
Weather: no significant weather forecast for this period
Text: PROB30
Forecast period: 0400 to 1700 UTC 26 January 2020
Forecast type: TEMPORARY: The following changes expected for less than half the time period
Winds: from the W (280 degrees) at 21 MPH (18 knots; 9.3 m/s)
gusting to 32 MPH (28 knots; 14.4 m/s)
Visibility: 2.49 miles (4.01 km)
Ceiling: at least 12,000 feet AGL
Clouds: scattered clouds at 3500 feet AGL
Weather: SHRA  (rain showers)
Text: TEMPO 2604/2617 28018G28KT 4000 SHRA SCT035TCU
Forecast period: 0400 to 1800 UTC 26 January 2020
Forecast type: BECOMING: Conditions expected to become as follows by 0600 UTC 26 January 2020
Winds: from the W (280 degrees) at 18 MPH (16 knots; 8.2 m/s)
Visibility: 6 or more miles 10+ km)
Ceiling: at least 12,000 feet AGL
Clouds: few clouds at 3500 feet AGL
Weather: no significant weather forecast for this period